Time;durP1;ratioP1;P1;durP2;ratioP2;P2;SDS_P1;SDS_P2;PMS_P1;PMS_P2;Temp;Humidity;BMP_temperature;BMP_pressure;BME280_temperature;BME280_humidity;BME280_pressure;Samples;Min_cycle;Max_cycle;Signal;HPM_P1;HPM_P2
2022/04/16 00:01:53;;;;;;;29.05;14.00;;;;;;;;;;4989583;28;20053;-73
2022/04/16 00:04:19;;;;;;;26.52;13.18;;;;;;;;;;5005037;28;20038;-73
2022/04/16 00:06:44;;;;;;;32.00;15.25;;;;;;;;;;5000565;28;20041;-73
2022/04/16 00:09:10;;;;;;;31.88;14.50;;;;;;;;;;5002731;28;20073;-73
2022/04/16 00:11:37;;;;;;;29.80;14.10;;;;;;;;;;4998825;28;20065;-73
2022/04/16 00:14:03;;;;;;;29.85;14.38;;;;;;;;;;4993403;28;20058;-73
2022/04/16 00:16:29;;;;;;;37.63;14.50;;;;;;;;;;4990834;28;20039;-73
2022/04/16 00:18:56;;;;;;;32.70;13.95;;;;;;;;;;4991576;28;20046;-73
2022/04/16 00:21:22;;;;;;;29.38;13.02;;;;;;;;;;5001507;28;20076;-73
2022/04/16 00:23:48;;;;;;;30.00;14.32;;;;;;;;;;5000257;28;20067;-73
2022/04/16 00:26:14;;;;;;;30.63;14.65;;;;;;;;;;5007697;28;20045;-73
2022/04/16 00:28:39;;;;;;;28.58;14.15;;;;;;;;;;5002462;28;20038;-73
2022/04/16 00:31:05;;;;;;;29.98;14.35;;;;;;;;;;4997976;28;20025;-73
2022/04/16 00:33:33;;;;;;;28.83;14.23;;;;;;;;;;4997835;28;20022;-74
2022/04/16 00:36:00;;;;;;;27.27;12.65;;;;;;;;;;5002194;28;20133;-73
2022/04/16 00:38:25;;;;;;;29.45;13.27;;;;;;;;;;4996703;28;20039;-73
2022/04/16 00:40:52;;;;;;;30.10;14.35;;;;;;;;;;5004971;28;20034;-73
2022/04/16 00:43:25;;;;;;;32.30;14.27;;;;;;;;;;5010237;28;20034;-73
2022/04/16 00:45:52;;;;;;;25.50;12.23;;;;;;;;;;5011210;28;20022;-73
2022/04/16 00:48:18;;;;;;;27.25;12.57;;;;;;;;;;5011257;28;20121;-73
2022/04/16 00:50:44;;;;;;;25.58;13.20;;;;;;;;;;4992650;28;20193;-73
2022/04/16 00:53:12;;;;;;;26.83;13.07;;;;;;;;;;4994695;28;20520;-73
2022/04/16 00:55:38;;;;;;;26.33;12.82;;;;;;;;;;4998673;28;20058;-73
2022/04/16 00:58:03;;;;;;;26.40;13.35;;;;;;;;;;5002133;28;20030;-73
2022/04/16 01:00:29;;;;;;;26.52;12.68;;;;;;;;;;4993229;28;20033;-73
2022/04/16 01:02:57;;;;;;;28.05;12.60;;;;;;;;;;4999339;28;20042;-73
2022/04/16 01:05:23;;;;;;;27.85;12.98;;;;;;;;;;5010406;28;20041;-73
2022/04/16 01:07:53;;;;;;;27.35;12.38;;;;;;;;;;4995060;28;20088;-73
2022/04/16 01:10:19;;;;;;;29.13;12.20;;;;;;;;;;4998181;28;20042;-73
2022/04/16 01:12:44;;;;;;;23.50;12.02;;;;;;;;;;4995250;28;20021;-73
2022/04/16 01:15:11;;;;;;;27.67;12.68;;;;;;;;;;4995101;28;20046;-73
2022/04/16 01:17:37;;;;;;;26.58;12.43;;;;;;;;;;4992837;28;20042;-73
2022/04/16 01:20:03;;;;;;;27.13;11.85;;;;;;;;;;4996681;28;20049;-73
2022/04/16 01:22:29;;;;;;;26.50;12.77;;;;;;;;;;4981833;28;20576;-73
2022/04/16 01:24:55;;;;;;;26.85;12.63;;;;;;;;;;4979327;28;20038;-73
2022/04/16 01:27:20;;;;;;;26.00;13.10;;;;;;;;;;4975023;28;20449;-73
2022/04/16 01:29:47;;;;;;;26.90;12.00;;;;;;;;;;4977984;28;20529;-72
2022/04/16 01:32:12;;;;;;;26.40;12.05;;;;;;;;;;4972195;28;20043;-73
2022/04/16 01:34:38;;;;;;;24.95;13.27;;;;;;;;;;4976509;28;20038;-73
2022/04/16 01:37:04;;;;;;;22.77;11.63;;;;;;;;;;4971747;28;20094;-73
2022/04/16 01:39:30;;;;;;;28.48;13.05;;;;;;;;;;4975414;28;20037;-73
2022/04/16 01:41:57;;;;;;;25.70;12.98;;;;;;;;;;4976175;28;20577;-72
2022/04/16 01:44:22;;;;;;;26.23;12.75;;;;;;;;;;4983154;28;20038;-73
2022/04/16 01:46:48;;;;;;;27.05;12.43;;;;;;;;;;4977548;28;20048;-73
2022/04/16 01:49:13;;;;;;;23.90;12.07;;;;;;;;;;4975791;28;20047;-73
2022/04/16 01:51:38;;;;;;;29.73;14.15;;;;;;;;;;4973760;28;20504;-72
2022/04/16 01:54:04;;;;;;;26.73;12.57;;;;;;;;;;4972594;28;20070;-73
2022/04/16 01:56:30;;;;;;;26.58;12.70;;;;;;;;;;4992612;28;20137;-73
2022/04/16 01:58:55;;;;;;;27.75;13.00;;;;;;;;;;5004088;28;20042;-72
2022/04/16 02:01:22;;;;;;;29.23;13.73;;;;;;;;;;5002464;28;20093;-73
2022/04/16 02:03:48;;;;;;;28.10;13.05;;;;;;;;;;4999286;28;20054;-73
2022/04/16 02:06:13;;;;;;;33.95;13.52;;;;;;;;;;5000190;28;20094;-72
2022/04/16 02:08:39;;;;;;;25.85;12.70;;;;;;;;;;4997324;28;20042;-73
2022/04/16 02:11:04;;;;;;;27.15;12.52;;;;;;;;;;5004611;28;20088;-73
2022/04/16 02:13:30;;;;;;;26.73;12.85;;;;;;;;;;5001621;28;20691;-73
2022/04/16 02:15:56;;;;;;;31.27;13.27;;;;;;;;;;5008533;28;20513;-73
2022/04/16 02:18:23;;;;;;;29.75;13.07;;;;;;;;;;5008119;28;20112;-73
2022/04/16 02:20:49;;;;;;;25.85;12.98;;;;;;;;;;5000652;28;20042;-73
2022/04/16 02:23:16;;;;;;;28.23;14.13;;;;;;;;;;5004664;28;20042;-73
2022/04/16 02:25:43;;;;;;;28.98;13.68;;;;;;;;;;4994112;28;20034;-73
2022/04/16 02:28:10;;;;;;;29.63;12.95;;;;;;;;;;4990723;28;20034;-73
2022/04/16 02:30:36;;;;;;;26.88;12.90;;;;;;;;;;4996349;28;20109;-73
2022/04/16 02:33:01;;;;;;;27.20;13.20;;;;;;;;;;4993480;28;20045;-73
2022/04/16 02:35:27;;;;;;;28.33;13.35;;;;;;;;;;4999072;28;20042;-73
2022/04/16 02:37:52;;;;;;;27.23;13.68;;;;;;;;;;4989711;28;20593;-73
2022/04/16 02:40:17;;;;;;;26.17;12.55;;;;;;;;;;4988426;28;20104;-73
2022/04/16 02:42:45;;;;;;;27.67;13.75;;;;;;;;;;5011252;28;20125;-73
2022/04/16 02:47:58;;;;;;;29.85;14.32;;;;;;;;;;4993881;28;20069;-73
2022/04/16 02:50:25;;;;;;;31.55;14.48;;;;;;;;;;5004406;28;20524;-73
2022/04/16 02:52:55;;;;;;;30.73;13.40;;;;;;;;;;4994206;28;20049;-73
2022/04/16 02:55:22;;;;;;;31.25;14.75;;;;;;;;;;4988764;28;20038;-73
2022/04/16 02:57:49;;;;;;;30.10;12.68;;;;;;;;;;5002057;28;20439;-73
2022/04/16 03:00:15;;;;;;;29.05;13.45;;;;;;;;;;4975961;28;20046;-73
2022/04/16 03:02:41;;;;;;;32.22;13.95;;;;;;;;;;4986394;28;20053;-73
2022/04/16 03:05:08;;;;;;;28.60;13.77;;;;;;;;;;4987205;28;20042;-73
2022/04/16 03:07:35;;;;;;;31.35;14.20;;;;;;;;;;4979456;28;20070;-73
2022/04/16 03:10:02;;;;;;;29.02;14.30;;;;;;;;;;4977311;28;20042;-73
2022/04/16 03:12:27;;;;;;;30.67;14.60;;;;;;;;;;4980689;28;20056;-73
2022/04/16 03:17:36;;;;;;;;;;;;;;;;;;4976271;28;20045;-73
2022/04/16 03:20:06;;;;;;;29.65;14.60;;;;;;;;;;4971464;28;19918;-73
2022/04/16 03:22:34;;;;;;;29.25;13.55;;;;;;;;;;4975983;28;20081;-73
2022/04/16 03:25:04;;;;;;;30.15;14.40;;;;;;;;;;4974513;28;20030;-72
2022/04/16 03:27:29;;;;;;;30.55;14.18;;;;;;;;;;4970086;28;20038;-73
2022/04/16 03:29:54;;;;;;;27.10;13.05;;;;;;;;;;4972156;28;20088;-73
2022/04/16 03:32:20;;;;;;;31.45;14.52;;;;;;;;;;4974666;28;20038;-73
2022/04/16 03:34:45;;;;;;;30.60;14.63;;;;;;;;;;4973475;28;20103;-73
2022/04/16 03:37:10;;;;;;;33.28;15.20;;;;;;;;;;4971978;28;20589;-73
2022/04/16 03:39:35;;;;;;;28.23;14.07;;;;;;;;;;4974878;28;20089;-73
2022/04/16 03:42:01;;;;;;;31.58;14.60;;;;;;;;;;4971981;28;20186;-73
2022/04/16 03:44:26;;;;;;;30.90;14.77;;;;;;;;;;4973373;28;20125;-73
2022/04/16 03:46:51;;;;;;;31.83;14.13;;;;;;;;;;4974744;28;20046;-73
2022/04/16 03:49:17;;;;;;;32.08;13.65;;;;;;;;;;4975420;28;20069;-72
2022/04/16 03:51:43;;;;;;;31.52;14.65;;;;;;;;;;4969598;28;20088;-73
2022/04/16 04:02:20;;;;;;;33.67;13.93;;;;;;;;;;4991595;28;19963;-73
2022/04/16 04:04:46;;;;;;;33.03;14.45;;;;;;;;;;4989465;28;20034;-73
2022/04/16 04:07:12;;;;;;;32.90;15.23;;;;;;;;;;4991367;28;20041;-73
2022/04/16 04:09:40;;;;;;;30.55;13.55;;;;;;;;;;4999400;28;20031;-73
2022/04/16 04:12:10;;;;;;;31.45;13.32;;;;;;;;;;4996943;28;20105;-73
2022/04/16 04:14:43;;;;;;;33.22;14.50;;;;;;;;;;4989037;28;20039;-72
2022/04/16 04:17:09;;;;;;;30.70;14.35;;;;;;;;;;4990757;28;20050;-73
2022/04/16 04:19:37;;;;;;;31.98;13.48;;;;;;;;;;4989482;28;20084;-72
2022/04/16 04:22:03;;;;;;;31.33;14.07;;;;;;;;;;4973376;28;20058;-72
2022/04/16 04:24:29;;;;;;;29.90;13.63;;;;;;;;;;4975688;28;20027;-73
2022/04/16 04:26:59;;;;;;;30.70;14.60;;;;;;;;;;4974737;28;20039;-73
2022/04/16 04:29:25;;;;;;;30.60;13.80;;;;;;;;;;4977910;28;20493;-73
2022/04/16 04:31:51;;;;;;;30.42;14.63;;;;;;;;;;4979180;28;20714;-72
2022/04/16 04:34:16;;;;;;;33.50;15.38;;;;;;;;;;4971896;28;20043;-73
2022/04/16 04:36:41;;;;;;;31.40;14.05;;;;;;;;;;4970829;28;20077;-73
2022/04/16 04:39:07;;;;;;;37.15;16.00;;;;;;;;;;4984947;28;20457;-72
2022/04/16 04:41:32;;;;;;;34.15;14.90;;;;;;;;;;4977548;28;20043;-72
2022/04/16 04:43:57;;;;;;;30.65;14.10;;;;;;;;;;4976100;28;20529;-73
2022/04/16 04:46:23;;;;;;;35.05;15.95;;;;;;;;;;4972823;28;20516;-73
2022/04/16 04:48:48;;;;;;;31.02;14.52;;;;;;;;;;4972436;28;20034;-72
2022/04/16 04:51:13;;;;;;;31.45;15.85;;;;;;;;;;4968860;28;20081;-73
2022/04/16 04:53:39;;;;;;;30.67;14.30;;;;;;;;;;4997294;28;20068;-73
2022/04/16 04:56:04;;;;;;;31.45;14.82;;;;;;;;;;4981993;28;20118;-73
2022/04/16 04:58:31;;;;;;;36.30;15.43;;;;;;;;;;4971354;28;20035;-73
2022/04/16 05:00:57;;;;;;;33.10;14.90;;;;;;;;;;4972184;28;20057;-73
2022/04/16 05:03:23;;;;;;;35.05;15.10;;;;;;;;;;4979799;28;20047;-73
2022/04/16 05:05:48;;;;;;;36.00;16.17;;;;;;;;;;4973975;28;20421;-73
2022/04/16 05:08:13;;;;;;;35.03;15.48;;;;;;;;;;4972068;28;20069;-72
2022/04/16 05:10:39;;;;;;;37.20;17.00;;;;;;;;;;4974456;28;20046;-73
2022/04/16 05:13:04;;;;;;;39.20;16.83;;;;;;;;;;4972606;28;20038;-73
2022/04/16 05:15:29;;;;;;;34.40;15.90;;;;;;;;;;4975573;28;20551;-73
2022/04/16 05:17:55;;;;;;;36.55;15.18;;;;;;;;;;4975785;28;20125;-73
2022/04/16 05:20:20;;;;;;;33.45;15.32;;;;;;;;;;4972409;28;20130;-73
2022/04/16 05:22:46;;;;;;;36.55;16.65;;;;;;;;;;4987936;28;20031;-73
2022/04/16 05:25:12;;;;;;;34.30;14.98;;;;;;;;;;4990953;28;20034;-73
2022/04/16 05:27:37;;;;;;;38.85;16.75;;;;;;;;;;4992080;28;20057;-73
2022/04/16 05:30:06;;;;;;;34.53;14.90;;;;;;;;;;5004269;28;20077;-73
2022/04/16 05:32:34;;;;;;;34.33;15.45;;;;;;;;;;4999736;28;20073;-73
2022/04/16 05:34:59;;;;;;;36.38;16.13;;;;;;;;;;4997160;28;20046;-73
2022/04/16 05:37:25;;;;;;;34.28;15.27;;;;;;;;;;4996991;28;20104;-71
2022/04/16 05:39:50;;;;;;;39.30;16.98;;;;;;;;;;4998303;28;20033;-73
2022/04/16 05:42:16;;;;;;;40.88;17.05;;;;;;;;;;5000118;28;20041;-73
2022/04/16 05:44:41;;;;;;;35.47;15.73;;;;;;;;;;5005850;28;20045;-73
2022/04/16 05:47:06;;;;;;;36.15;16.15;;;;;;;;;;5013097;28;20086;-73
2022/04/16 05:49:32;;;;;;;36.67;16.20;;;;;;;;;;5006685;28;20046;-73
2022/04/16 05:51:57;;;;;;;34.58;16.15;;;;;;;;;;5011921;28;20064;-73
2022/04/16 05:54:22;;;;;;;35.55;16.55;;;;;;;;;;5012431;28;20420;-73
2022/04/16 05:56:48;;;;;;;33.50;15.32;;;;;;;;;;5007654;28;20042;-73
2022/04/16 05:59:13;;;;;;;35.53;15.95;;;;;;;;;;4992739;28;20037;-73
2022/04/16 06:01:38;;;;;;;31.67;15.75;;;;;;;;;;5014725;28;20555;-73
2022/04/16 06:04:04;;;;;;;36.95;15.68;;;;;;;;;;5009946;28;20123;-73
2022/04/16 06:06:29;;;;;;;34.35;15.50;;;;;;;;;;5015868;28;20037;-73
2022/04/16 06:08:54;;;;;;;36.60;15.45;;;;;;;;;;5007491;28;20049;-73
2022/04/16 06:11:21;;;;;;;40.13;17.45;;;;;;;;;;5004673;28;20039;-73
2022/04/16 06:13:46;;;;;;;38.03;16.85;;;;;;;;;;5001724;28;20049;-73
2022/04/16 06:16:12;;;;;;;35.80;15.90;;;;;;;;;;4995792;28;20125;-73
2022/04/16 06:18:37;;;;;;;35.88;16.40;;;;;;;;;;4994950;28;20451;-73
2022/04/16 06:21:03;;;;;;;39.35;16.35;;;;;;;;;;4996395;28;20546;-73
2022/04/16 06:23:31;;;;;;;35.72;17.10;;;;;;;;;;5002632;28;20149;-77
2022/04/16 06:25:57;;;;;;;37.08;16.67;;;;;;;;;;5008360;28;20038;-70
2022/04/16 06:28:22;;;;;;;35.83;16.10;;;;;;;;;;5008374;28;20899;-68
2022/04/16 06:30:47;;;;;;;36.53;18.05;;;;;;;;;;4993379;28;20030;-69
2022/04/16 06:33:12;;;;;;;37.80;16.67;;;;;;;;;;4997961;28;20042;-69
2022/04/16 06:35:38;;;;;;;36.65;17.15;;;;;;;;;;5008272;28;20061;-69
2022/04/16 06:38:03;;;;;;;37.92;16.58;;;;;;;;;;4998919;28;20046;-68
2022/04/16 06:40:29;;;;;;;34.80;16.35;;;;;;;;;;4995962;28;20195;-69
2022/04/16 06:42:54;;;;;;;35.83;16.60;;;;;;;;;;4999659;28;20450;-69
2022/04/16 06:45:19;;;;;;;42.38;17.55;;;;;;;;;;5012119;28;20029;-69
2022/04/16 06:47:45;;;;;;;39.63;18.17;;;;;;;;;;5023603;28;20037;-70
2022/04/16 06:50:10;;;;;;;32.83;16.08;;;;;;;;;;5004346;28;20062;-69
2022/04/16 06:52:36;;;;;;;36.30;17.80;;;;;;;;;;5004454;28;20538;-69
2022/04/16 06:55:03;;;;;;;35.95;15.75;;;;;;;;;;5004973;28;20022;-69
2022/04/16 06:57:28;;;;;;;32.70;16.10;;;;;;;;;;5002155;28;20022;-68
2022/04/16 06:59:53;;;;;;;32.47;15.07;;;;;;;;;;5006335;28;20519;-68
2022/04/16 07:02:19;;;;;;;38.92;17.52;;;;;;;;;;5001366;28;20100;-69
2022/04/16 07:04:44;;;;;;;33.85;16.02;;;;;;;;;;4999307;28;20065;-69
2022/04/16 07:07:10;;;;;;;29.70;14.43;;;;;;;;;;4999481;28;20150;-69
2022/04/16 07:09:40;;;;;;;39.75;17.23;;;;;;;;;;5000800;28;20039;-69
2022/04/16 07:12:07;;;;;;;32.38;14.07;;;;;;;;;;5002788;28;20045;-69
2022/04/16 07:14:33;;;;;;;31.02;15.60;;;;;;;;;;4997856;28;20038;-69
2022/04/16 07:16:59;;;;;;;31.27;15.60;;;;;;;;;;5005287;28;20111;-69
2022/04/16 07:19:24;;;;;;;34.65;15.32;;;;;;;;;;5005417;28;20033;-69
2022/04/16 07:21:49;;;;;;;32.22;15.88;;;;;;;;;;5013831;28;20024;-68
2022/04/16 07:24:15;;;;;;;34.00;16.27;;;;;;;;;;5000160;28;20030;-69
2022/04/16 07:26:40;;;;;;;31.95;14.68;;;;;;;;;;4998833;28;20038;-69
2022/04/16 07:29:05;;;;;;;29.70;15.13;;;;;;;;;;5002656;28;20076;-69
2022/04/16 07:31:31;;;;;;;26.95;13.85;;;;;;;;;;4998898;28;20038;-69
2022/04/16 07:33:56;;;;;;;28.80;13.98;;;;;;;;;;5002416;28;20531;-69
2022/04/16 07:36:21;;;;;;;33.58;14.57;;;;;;;;;;4999950;28;20030;-69
2022/04/16 07:38:47;;;;;;;29.50;14.40;;;;;;;;;;4998799;28;20062;-69
2022/04/16 07:41:12;;;;;;;30.42;14.25;;;;;;;;;;5000816;28;20046;-69
2022/04/16 07:43:37;;;;;;;29.85;15.18;;;;;;;;;;4996428;28;20038;-69
2022/04/16 07:46:03;;;;;;;28.42;14.85;;;;;;;;;;4998456;28;20037;-69
2022/04/16 07:48:28;;;;;;;31.05;14.73;;;;;;;;;;5001065;28;20091;-69
2022/04/16 07:50:54;;;;;;;29.08;14.00;;;;;;;;;;5002566;28;20052;-69
2022/04/16 07:53:19;;;;;;;27.05;13.43;;;;;;;;;;5002118;28;20682;-69
2022/04/16 07:55:45;;;;;;;25.45;13.40;;;;;;;;;;5000498;28;20042;-69
2022/04/16 07:58:10;;;;;;;25.27;12.10;;;;;;;;;;5002107;28;20132;-69
2022/04/16 08:00:35;;;;;;;25.70;13.00;;;;;;;;;;5000054;28;20030;-69
2022/04/16 08:03:01;;;;;;;25.58;12.15;;;;;;;;;;5005970;28;20427;-69
2022/04/16 08:05:26;;;;;;;26.25;12.02;;;;;;;;;;5000648;28;20049;-70
2022/04/16 08:07:51;;;;;;;25.02;12.88;;;;;;;;;;5003458;28;20088;-70
2022/04/16 08:10:17;;;;;;;21.65;11.13;;;;;;;;;;4999204;28;20042;-69
2022/04/16 08:12:42;;;;;;;20.00;10.82;;;;;;;;;;5005681;28;20034;-69
2022/04/16 08:15:10;;;;;;;24.23;12.18;;;;;;;;;;4996120;28;20038;-69
2022/04/16 08:17:37;;;;;;;23.00;11.85;;;;;;;;;;5000104;28;20038;-69
2022/04/16 08:20:06;;;;;;;24.08;11.77;;;;;;;;;;4998564;28;20041;-69
2022/04/16 08:22:34;;;;;;;22.20;11.70;;;;;;;;;;5000399;28;20034;-70
2022/04/16 08:27:45;;;;;;;22.60;11.02;;;;;;;;;;5002597;28;20128;-69
2022/04/16 08:30:12;;;;;;;21.38;11.40;;;;;;;;;;4997410;28;20052;-69
2022/04/16 08:32:38;;;;;;;18.85;10.27;;;;;;;;;;5002334;28;20092;-69
2022/04/16 08:35:04;;;;;;;19.52;10.27;;;;;;;;;;5007857;28;20065;-70
2022/04/16 08:37:31;;;;;;;18.45;9.32;;;;;;;;;;4994883;28;20113;-69
2022/04/16 08:39:57;;;;;;;17.17;9.57;;;;;;;;;;4993839;28;20018;-69
2022/04/16 08:42:23;;;;;;;17.58;9.38;;;;;;;;;;4999031;28;20420;-69
2022/04/16 08:44:48;;;;;;;15.45;8.35;;;;;;;;;;4999243;28;20047;-74
2022/04/16 08:47:14;;;;;;;18.30;9.77;;;;;;;;;;4999417;28;20092;-74
2022/04/16 08:49:41;;;;;;;19.25;9.95;;;;;;;;;;5009895;28;20104;-74
2022/04/16 08:52:08;;;;;;;18.25;9.32;;;;;;;;;;5008309;28;20053;-74
2022/04/16 08:54:36;;;;;;;17.48;9.23;;;;;;;;;;5005896;28;20057;-73
2022/04/16 08:57:01;;;;;;;16.30;8.80;;;;;;;;;;4998738;28;20449;-74
2022/04/16 08:59:26;;;;;;;14.38;9.07;;;;;;;;;;5004078;28;20129;-73
2022/04/16 09:01:52;;;;;;;15.00;8.15;;;;;;;;;;5007836;28;20067;-73
2022/04/16 09:04:22;;;;;;;15.50;8.20;;;;;;;;;;5001749;28;20046;-74
2022/04/16 09:07:01;;;;;;;16.35;8.98;;;;;;;;;;5001831;28;20458;-74
2022/04/16 09:09:28;;;;;;;13.80;8.07;;;;;;;;;;4981737;28;20480;-74
2022/04/16 09:11:53;;;;;;;14.70;8.43;;;;;;;;;;4982410;28;20088;-74
2022/04/16 09:14:20;;;;;;;14.55;6.93;;;;;;;;;;4982287;28;20038;-74
2022/04/16 09:16:45;;;;;;;12.25;6.82;;;;;;;;;;4988320;28;20038;-73
2022/04/16 09:19:13;;;;;;;12.52;6.55;;;;;;;;;;4984645;28;20042;-74
2022/04/16 09:21:38;;;;;;;12.93;7.22;;;;;;;;;;4981971;28;20407;-74
2022/04/16 09:24:04;;;;;;;12.68;6.93;;;;;;;;;;5000212;28;20026;-74
2022/04/16 09:26:37;;;;;;;10.73;6.03;;;;;;;;;;5003609;28;20030;-74
2022/04/16 09:29:14;;;;;;;;;;;;;;;;;;5001757;28;20420;-74
2022/04/16 09:31:43;;;;;;;8.95;5.30;;;;;;;;;;4999301;28;19918;-74
2022/04/16 09:34:19;;;;;;;9.35;5.32;;;;;;;;;;4983498;28;20033;-74
2022/04/16 09:36:45;;;;;;;9.23;5.35;;;;;;;;;;4982541;28;20037;-74
2022/04/16 09:39:11;;;;;;;10.73;5.40;;;;;;;;;;4975301;28;20034;-73
2022/04/16 09:41:38;;;;;;;9.18;5.68;;;;;;;;;;4984731;28;20520;-74
2022/04/16 09:44:15;;;;;;;11.85;6.15;;;;;;;;;;4986267;28;20060;-74
2022/04/16 09:46:44;;;;;;;13.65;6.30;;;;;;;;;;4982152;28;20080;-73
2022/04/16 09:49:12;;;;;;;13.77;6.60;;;;;;;;;;4984653;28;20096;-74
2022/04/16 09:51:39;;;;;;;10.57;6.35;;;;;;;;;;5003431;28;20406;-74
2022/04/16 09:54:05;;;;;;;10.32;5.75;;;;;;;;;;4985758;28;20128;-74
2022/04/16 09:56:35;;;;;;;9.23;5.28;;;;;;;;;;4983629;28;20515;-74
2022/04/16 09:59:05;;;;;;;8.70;5.25;;;;;;;;;;4980762;28;20030;-74
2022/04/16 10:01:32;;;;;;;7.90;5.10;;;;;;;;;;4984418;28;20058;-74
2022/04/16 10:03:58;;;;;;;6.97;4.50;;;;;;;;;;4982256;28;20765;-74
2022/04/16 10:06:24;;;;;;;7.78;3.92;;;;;;;;;;4992902;28;20120;-74
2022/04/16 10:08:50;;;;;;;5.13;3.80;;;;;;;;;;4982042;28;20134;-74
2022/04/16 10:11:32;;;;;;;8.57;4.82;;;;;;;;;;4986318;28;20480;-74
2022/04/16 10:14:03;;;;;;;9.27;4.85;;;;;;;;;;5001455;28;20046;-73
2022/04/16 10:16:50;;;;;;;7.30;4.63;;;;;;;;;;5001023;28;20046;-73
2022/04/16 10:19:16;;;;;;;7.13;4.15;;;;;;;;;;5003610;28;20060;-73
2022/04/16 10:21:42;;;;;;;8.60;4.40;;;;;;;;;;5015318;28;20057;-74
2022/04/16 10:24:07;;;;;;;8.52;5.30;;;;;;;;;;5019247;28;20519;-74
2022/04/16 10:26:42;;;;;;;7.63;4.32;;;;;;;;;;4994636;28;20042;-74
2022/04/16 10:29:08;;;;;;;7.32;4.22;;;;;;;;;;5003473;28;20045;-73
2022/04/16 10:31:34;;;;;;;7.90;4.80;;;;;;;;;;4988977;28;20073;-73
2022/04/16 10:34:05;;;;;;;6.90;4.50;;;;;;;;;;4993158;28;20030;-73
2022/04/16 10:36:33;;;;;;;6.82;4.15;;;;;;;;;;5000548;28;20033;-73
2022/04/16 10:39:00;;;;;;;6.50;3.88;;;;;;;;;;4996588;28;20515;-73
2022/04/16 10:41:27;;;;;;;6.78;4.20;;;;;;;;;;4996530;28;20620;-73
2022/04/16 10:43:59;;;;;;;7.65;3.90;;;;;;;;;;5008835;28;20523;-73
2022/04/16 10:46:46;;;;;;;7.35;4.35;;;;;;;;;;5002381;28;20767;-74
2022/04/16 10:49:30;;;;;;;9.75;4.20;;;;;;;;;;5002731;28;20037;-74
2022/04/16 10:51:55;;;;;;;9.40;5.47;;;;;;;;;;4997819;28;20188;-74
2022/04/16 10:54:35;;;;;;;7.28;4.55;;;;;;;;;;5003248;28;20577;-73
2022/04/16 10:57:01;;;;;;;8.63;4.82;;;;;;;;;;4999321;28;20046;-74
2022/04/16 10:59:43;;;;;;;8.73;4.50;;;;;;;;;;5003533;28;20126;-74
2022/04/16 11:02:22;;;;;;;9.35;5.25;;;;;;;;;;5001470;28;20115;-74
2022/04/16 11:04:58;;;;;;;11.07;6.28;;;;;;;;;;5001031;28;20030;-74
2022/04/16 11:07:24;;;;;;;12.02;5.82;;;;;;;;;;5000530;28;20447;-74
2022/04/16 11:09:53;;;;;;;10.23;5.50;;;;;;;;;;4995356;28;20022;-74
2022/04/16 11:12:20;;;;;;;9.52;5.75;;;;;;;;;;5004459;28;20041;-74
2022/04/16 11:14:51;;;;;;;8.85;5.57;;;;;;;;;;4999674;28;20473;-74
2022/04/16 11:17:19;;;;;;;8.60;4.97;;;;;;;;;;4995801;28;20144;-73
2022/04/16 11:19:45;;;;;;;8.63;4.93;;;;;;;;;;4993291;28;20205;-73
2022/04/16 11:22:11;;;;;;;8.15;5.10;;;;;;;;;;4979067;28;20049;-74
2022/04/16 11:24:37;;;;;;;9.30;5.50;;;;;;;;;;4983345;28;20022;-74
2022/04/16 11:35:14;;;;;;;7.75;4.38;;;;;;;;;;4973966;28;20150;-73
2022/04/16 11:37:40;;;;;;;7.07;4.72;;;;;;;;;;4982709;28;20050;-73
2022/04/16 11:40:08;;;;;;;10.32;5.68;;;;;;;;;;4973390;28;20026;-73
2022/04/16 11:42:33;;;;;;;8.10;5.03;;;;;;;;;;4974558;28;20023;-73
2022/04/16 11:44:59;;;;;;;8.73;4.80;;;;;;;;;;4968804;28;20061;-73
2022/04/16 11:47:30;;;;;;;10.93;5.78;;;;;;;;;;4970839;28;20096;-73
2022/04/16 11:49:59;;;;;;;7.28;4.22;;;;;;;;;;4977626;28;20042;-73
2022/04/16 11:52:26;;;;;;;9.75;5.10;;;;;;;;;;4983131;28;20670;-73
2022/04/16 11:55:14;;;;;;;7.55;4.40;;;;;;;;;;4997664;28;20088;-73
2022/04/16 11:57:44;;;;;;;8.40;4.55;;;;;;;;;;5001925;28;20020;-73
2022/04/16 12:00:11;;;;;;;7.95;4.55;;;;;;;;;;5002284;28;20026;-73
2022/04/16 12:02:38;;;;;;;8.75;4.65;;;;;;;;;;4997207;28;20058;-73
2022/04/16 12:05:11;;;;;;;7.75;4.80;;;;;;;;;;5000484;28;20034;-73
2022/04/16 12:07:40;;;;;;;11.05;5.68;;;;;;;;;;4999516;28;20481;-73
2022/04/16 12:10:06;;;;;;;6.93;4.57;;;;;;;;;;5001297;28;20022;-73
2022/04/16 12:12:48;;;;;;;12.95;5.32;;;;;;;;;;5001306;28;20133;-73
2022/04/16 12:15:25;;;;;;;8.50;5.30;;;;;;;;;;4997069;28;20689;-73
2022/04/16 12:17:52;;;;;;;10.60;5.65;;;;;;;;;;4997578;28;20026;-73
2022/04/16 12:20:20;;;;;;;8.00;5.03;;;;;;;;;;5006166;28;20036;-73
2022/04/16 12:22:49;;;;;;;9.48;5.55;;;;;;;;;;5004696;28;20071;-73
2022/04/16 12:25:20;;;;;;;7.45;5.00;;;;;;;;;;5015455;28;20034;-73
2022/04/16 12:27:49;;;;;;;9.30;5.20;;;;;;;;;;5002198;28;20033;-73
2022/04/16 12:30:19;;;;;;;8.30;4.90;;;;;;;;;;5004925;28;20034;-73
2022/04/16 12:32:59;;;;;;;6.90;4.72;;;;;;;;;;5000576;28;20034;-73
2022/04/16 12:35:25;;;;;;;8.15;4.80;;;;;;;;;;5004421;28;20061;-73
2022/04/16 12:37:51;;;;;;;8.35;5.28;;;;;;;;;;5001086;28;20527;-73
2022/04/16 12:40:18;;;;;;;7.57;5.00;;;;;;;;;;5015751;28;20145;-73
2022/04/16 12:42:43;;;;;;;9.13;5.60;;;;;;;;;;5004491;28;20026;-73
2022/04/16 12:45:09;;;;;;;10.15;5.90;;;;;;;;;;5003804;28;20096;-73
2022/04/16 12:47:34;;;;;;;11.15;5.40;;;;;;;;;;5004814;28;20125;-74
2022/04/16 12:50:00;;;;;;;8.10;5.43;;;;;;;;;;5001643;28;20125;-73
2022/04/16 12:52:25;;;;;;;11.07;6.10;;;;;;;;;;5005826;28;20531;-73
2022/04/16 12:54:50;;;;;;;10.50;5.85;;;;;;;;;;5002758;28;20522;-73
2022/04/16 12:57:16;;;;;;;10.70;6.50;;;;;;;;;;4998140;28;20104;-73
2022/04/16 12:59:41;;;;;;;10.90;6.25;;;;;;;;;;5003274;28;20026;-73
2022/04/16 13:02:06;;;;;;;10.75;5.93;;;;;;;;;;4996276;28;20058;-74
2022/04/16 13:04:33;;;;;;;10.93;6.55;;;;;;;;;;5004346;28;20120;-73
2022/04/16 13:06:58;;;;;;;14.73;6.43;;;;;;;;;;4990609;28;20018;-74
2022/04/16 13:09:24;;;;;;;10.35;6.68;;;;;;;;;;5008366;28;20384;-73
2022/04/16 13:11:51;;;;;;;9.23;6.20;;;;;;;;;;5004661;28;20033;-74
2022/04/16 13:14:17;;;;;;;11.05;6.45;;;;;;;;;;5002383;28;20038;-74
2022/04/16 13:16:45;;;;;;;13.75;7.30;;;;;;;;;;5005340;28;20036;-73
2022/04/16 13:19:11;;;;;;;11.02;7.18;;;;;;;;;;4999216;28;20073;-73
2022/04/16 13:21:37;;;;;;;12.00;7.30;;;;;;;;;;5006716;28;20030;-73
2022/04/16 13:24:03;;;;;;;10.27;6.53;;;;;;;;;;4999659;28;20648;-73
2022/04/16 13:26:28;;;;;;;10.35;7.07;;;;;;;;;;5005778;28;20057;-73
2022/04/16 13:28:53;;;;;;;13.77;7.30;;;;;;;;;;5002108;28;20527;-73
2022/04/16 13:31:19;;;;;;;11.07;6.65;;;;;;;;;;5002140;28;20141;-73
2022/04/16 13:33:44;;;;;;;10.85;6.90;;;;;;;;;;5006627;28;20026;-73
2022/04/16 13:36:09;;;;;;;10.95;7.07;;;;;;;;;;5004522;28;20113;-73
2022/04/16 13:38:35;;;;;;;11.13;6.97;;;;;;;;;;5006775;28;20037;-73
2022/04/16 13:43:44;;;;;;;9.90;6.82;;;;;;;;;;5006979;28;20049;-73
2022/04/16 13:46:10;;;;;;;11.60;7.22;;;;;;;;;;5005354;28;20069;-73
2022/04/16 13:48:36;;;;;;;8.88;6.40;;;;;;;;;;5006964;28;20030;-73
2022/04/16 13:51:01;;;;;;;9.98;7.07;;;;;;;;;;5000798;28;20069;-73
2022/04/16 13:53:26;;;;;;;11.82;7.00;;;;;;;;;;5005814;28;20121;-74
2022/04/16 13:55:52;;;;;;;9.93;6.47;;;;;;;;;;5003669;28;20026;-74
2022/04/16 13:58:17;;;;;;;11.25;7.03;;;;;;;;;;5006670;28;20660;-73
2022/04/16 14:00:43;;;;;;;9.75;6.78;;;;;;;;;;5006751;28;20022;-73
2022/04/16 14:03:09;;;;;;;9.40;6.40;;;;;;;;;;5009509;28;20046;-73
2022/04/16 14:05:43;;;;;;;10.63;7.03;;;;;;;;;;5002199;28;20511;-73
2022/04/16 14:08:08;;;;;;;9.20;6.47;;;;;;;;;;5010172;28;20049;-73
2022/04/16 14:10:34;;;;;;;9.48;5.82;;;;;;;;;;5000928;28;20408;-73
2022/04/16 14:13:01;;;;;;;11.10;6.10;;;;;;;;;;5000506;28;20400;-73
2022/04/16 14:15:26;;;;;;;9.07;6.47;;;;;;;;;;5006441;28;20032;-73
2022/04/16 14:17:52;;;;;;;10.15;6.85;;;;;;;;;;5004567;28;20026;-73
2022/04/16 14:20:18;;;;;;;10.20;5.57;;;;;;;;;;5002450;28;20057;-73
2022/04/16 14:22:44;;;;;;;19.55;8.77;;;;;;;;;;5006580;28;20783;-73
2022/04/16 14:25:10;;;;;;;11.25;7.38;;;;;;;;;;5001165;28;20045;-73
2022/04/16 14:27:35;;;;;;;13.35;7.80;;;;;;;;;;5005628;28;20061;-73
2022/04/16 14:30:01;;;;;;;11.90;7.28;;;;;;;;;;5004035;28;20061;-73
2022/04/16 14:32:27;;;;;;;11.73;7.03;;;;;;;;;;5002045;28;20038;-73
2022/04/16 14:34:53;;;;;;;11.07;7.45;;;;;;;;;;5002595;28;20095;-73
2022/04/16 14:37:19;;;;;;;13.75;7.82;;;;;;;;;;5007316;28;20867;-73
2022/04/16 14:39:44;;;;;;;12.50;7.60;;;;;;;;;;5003813;28;20026;-74
2022/04/16 14:42:10;;;;;;;10.57;6.93;;;;;;;;;;5001261;28;20038;-73
2022/04/16 14:44:40;;;;;;;11.55;7.10;;;;;;;;;;5007115;28;20180;-73
2022/04/16 14:47:07;;;;;;;12.13;7.85;;;;;;;;;;5012436;28;20411;-73
2022/04/16 14:49:33;;;;;;;12.05;7.85;;;;;;;;;;5010891;28;20045;-73
2022/04/16 14:51:59;;;;;;;13.90;8.13;;;;;;;;;;5002893;28;20027;-73